DucheSS Of Scandinavia — OUZI2 — position and weather

sailwx.info

Track history (hours):
 
Tides and Currents Weather Stations Pressure Air Temp Water Temp Dewpoint Dewpoint Depression Visibility Wind Speed Wind Dir Waves Ship Positions

DucheSS Of Scandinavia

Operator: DFDS A/S

Last reported at 2019-Dec-08 11:00 UTC. Time now 2019-Dec-08 11:19 UTC.
Position N 58°56' E 011°09'.

Length 134 m; draft 5.4 m.

Type: Passenger vessel. MMSI: 219002929.

Date/timePositionNaut miles runAvg speedWind from/ knotsBaromVisibWave heightAir tempDewpointWater temp
2019-Dec-08 11:00N 58°56' E 011°09'0 0.5
2019-Dec-08 10:00N 58°56' E 011°10'1514.8
2019-Dec-08 09:01N 59°02' E 010°43'16 2.9
2019-Dec-08 03:30N 59°06' E 010°14'0 0.0
2019-Dec-08 03:00N 59°06' E 010°14'0 0.0
2019-Dec-08 02:28N 59°06' E 010°14'0 0.0
2019-Dec-08 01:28N 59°06' E 010°14'0 0.0
2019-Dec-07 23:59N 59°06' E 010°14'0 0.0
2019-Dec-07 23:30N 59°06' E 010°14'0 0.0
2019-Dec-07 21:28N 59°06' E 010°14'1 1.3
2019-Dec-07 20:30N 59°07' E 010°14'13 2.5
2019-Dec-07 15:30N 59°01' E 010°34'1212.3
2019-Dec-07 14:30N 59°07' E 010°14'1 1.7
2019-Dec-07 14:00N 59°08' E 010°14'31 8.9
2019-Dec-07 10:30N 58°56' E 011°10'1110.9
2019-Dec-07 09:30N 59°01' E 010°52'1615.9
2019-Dec-07 08:30N 59°01' E 010°21'7 4.9
2019-Dec-07 07:00N 59°07' E 010°14'1 2.5
2019-Dec-07 06:30N 59°06' E 010°14'0 0.0
2019-Dec-07 04:30N 59°06' E 010°14'0 0.0
2019-Dec-07 02:58N 59°06' E 010°14'0 0.0
2019-Dec-07 00:59N 59°06' E 010°14'0 0.0
2019-Dec-07 00:00N 59°06' E 010°14'0 0.0
2019-Dec-06 23:30N 59°06' E 010°14'0 0.0
2019-Dec-06 21:28N 59°06' E 010°14'0 0.0
2019-Dec-06 21:00N 59°06' E 010°14'1 1.1
2019-Dec-06 20:01N 59°07' E 010°14'611.9
2019-Dec-06 19:30N 59°01' E 010°17'2214.9
2019-Dec-06 18:00N 58°59' E 010°60'6 6.3
2019-Dec-06 17:01N 58°56' E 011°10'1212.3
2019-Dec-06 16:00N 59°02' E 010°49'1912.3
2019-Dec-06 14:30N 59°06' E 010°14'1 2.7
2019-Dec-06 14:00N 59°08' E 010°14'7 7.2
2019-Dec-06 13:01N 59°01' E 010°18'714.5
2019-Dec-06 12:30N 58°60' E 010°32'713.1
2019-Dec-06 12:00N 59°01' E 010°44'1413.9
2019-Dec-06 11:00N 58°56' E 011°09'31 7.7
2019-Dec-06 07:00N 59°08' E 010°14'0 0.8
2019-Dec-06 06:30N 59°07' E 010°14'1 0.5
2019-Dec-06 04:29N 59°06' E 010°14'0 0.0
2019-Dec-06 02:00N 59°06' E 010°14'0 0.0
2019-Dec-06 01:28N 59°06' E 010°14'0 0.0
2019-Dec-05 22:30N 59°06' E 010°14'8 2.6
2019-Dec-05 19:30N 58°60' E 010°22'1110.9
2019-Dec-05 18:30N 59°01' E 010°43'1413.8
2019-Dec-05 17:30N 58°56' E 011°08'4 3.8
2019-Dec-05 16:31N 58°58' E 011°02'1414.0
2019-Dec-05 15:31N 58°60' E 010°36'12 6.2
2019-Dec-05 13:31N 59°06' E 010°14'713.9
2019-Dec-05 13:00N 59°00' E 010°22'12 3.1
2019-Dec-05 09:01N 59°02' E 010°46'17 5.6
2019-Dec-05 05:58N 59°06' E 010°14'0 0.0
2019-Dec-05 05:28N 59°06' E 010°14'0 0.0
2019-Dec-05 04:59N 59°06' E 010°14'0 0.0
2019-Dec-05 01:58N 59°06' E 010°14'0 0.0
2019-Dec-05 00:58N 59°06' E 010°14'12 2.0
2019-Dec-04 19:00N 59°01' E 010°34'18 8.8
2019-Dec-04 17:00N 58°56' E 011°07'13 2.6
2019-Dec-04 12:00N 59°02' E 010°44'8 3.3
2019-Dec-04 09:30N 58°59' E 010°60'1414.2
2019-Dec-04 08:31N 59°00' E 010°32'12 6.0
2019-Dec-04 06:30N 59°07' E 010°14'1 1.1
2019-Dec-04 05:29N 59°06' E 010°14'0 0.0
2019-Dec-04 05:00N 59°06' E 010°14'0 0.0
2019-Dec-04 04:00N 59°06' E 010°14'0 0.0
2019-Dec-04 03:28N 59°06' E 010°14'0 0.0
2019-Dec-04 02:28N 59°06' E 010°14'0 0.0
2019-Dec-04 01:56N 59°06' E 010°14'0 0.0
2019-Dec-04 00:30N 59°06' E 010°14'0 0.0
2019-Dec-03 23:30N 59°06' E 010°14'0 0.0
2019-Dec-03 21:29N 59°06' E 010°14'0 0.0
2019-Dec-03 20:59N 59°06' E 010°14'0 0.0
2019-Dec-03 20:29N 59°06' E 010°14'1 2.9
2019-Dec-03 20:00N 59°08' E 010°14'3110.5
2019-Dec-03 17:00N 58°56' E 011°10'2512.5
2019-Dec-03 15:00N 59°01' E 010°23'8 5.5
2019-Dec-03 13:30N 59°08' E 010°14'2311.5
2019-Dec-03 11:30N 59°00' E 010°56'3 1.3
2019-Dec-03 09:30N 58°59' E 011°00'815.3
2019-Dec-03 09:01N 59°02' E 010°47'815.5
2019-Dec-03 08:30N 59°01' E 010°32'1111.5
2019-Dec-03 07:31N 59°07' E 010°14'0 0.1
2019-Dec-03 06:31N 59°08' E 010°14'1 1.2
2019-Dec-03 05:28N 59°06' E 010°14'0 0.0
2019-Dec-03 04:29N 59°06' E 010°14'0 0.0
2019-Dec-03 03:59N 59°06' E 010°14'0 0.0
2019-Dec-03 03:29N 59°06' E 010°14'0 0.0
2019-Dec-03 00:28N 59°06' E 010°14'0 0.0
2019-Dec-02 22:59N 59°06' E 010°14'0 0.1
2019-Dec-02 22:30N 59°06' E 010°14'0 0.0
2019-Dec-02 21:30N 59°06' E 010°14'2 0.9
2019-Dec-02 19:31N 59°04' E 010°15'713.8
2019-Dec-02 19:00N 59°01' E 010°26'815.7
2019-Dec-02 18:30N 59°01' E 010°41'1514.7
2019-Dec-02 17:31N 58°56' E 011°08'1 2.3
2019-Dec-02 17:01N 58°56' E 011°10'1111.2
2019-Dec-02 16:01N 59°01' E 010°51'18 6.0
2019-Dec-02 13:00N 59°02' E 010°16'2214.6
2019-Dec-02 11:31N 58°60' E 010°58'14 4.7
2019-Dec-02 08:30N 59°00' E 010°31'1111.4
2019-Dec-02 07:30N 59°07' E 010°14'0 0.3
2019-Dec-02 07:00N 59°08' E 010°14'1 1.4
2019-Dec-02 06:01N 59°06' E 010°14'0 0.0
2019-Dec-02 04:30N 59°06' E 010°14'0 0.0
2019-Dec-02 04:00N 59°06' E 010°14'0 0.0
2019-Dec-02 03:28N 59°06' E 010°14'0 0.0
2019-Dec-02 01:29N 59°06' E 010°14'0 0.0
2019-Dec-01 23:30N 59°06' E 010°14'1 0.4
2019-Dec-01 19:59N 59°08' E 010°14'1610.7
2019-Dec-01 18:31N 59°01' E 010°42'12 5.9
2019-Dec-01 16:30N 58°57' E 011°03'714.3
2019-Dec-01 16:00N 59°01' E 010°51'2010.2
2019-Dec-01 14:00N 59°08' E 010°14'7 6.7
2019-Dec-01 13:01N 59°01' E 010°19'1615.7
2019-Dec-01 12:00N 59°01' E 010°49'714.9
2019-Dec-01 11:30N 58°58' E 011°02'17 5.7
2019-Dec-01 08:30N 59°00' E 010°30'10 3.3
2019-Dec-01 05:29N 59°06' E 010°14'0 0.0
2019-Dec-01 04:59N 59°06' E 010°14'0 0.0
2019-Dec-01 04:00N 59°06' E 010°14'0 0.0
2019-Dec-01 03:30N 59°06' E 010°14'0 0.0
2019-Dec-01 02:28N 59°06' E 010°14'0 0.0
2019-Nov-30 23:59N 59°06' E 010°14'0 0.0
2019-Nov-30 23:00N 59°06' E 010°14'0 0.0
2019-Nov-30 21:28N 59°06' E 010°14'1 1.2
2019-Nov-30 20:30N 59°07' E 010°14'11 7.2
2019-Nov-30 19:00N 59°01' E 010°30'817.0
2019-Nov-30 18:31N 59°02' E 010°46'16 3.2
2019-Nov-30 13:30N 59°04' E 010°15'1515.3
2019-Nov-30 12:31N 59°01' E 010°45'17 2.3
2019-Nov-30 05:29N 59°06' E 010°14'0 0.0
2019-Nov-30 04:59N 59°06' E 010°14'0 0.0
2019-Nov-30 03:30N 59°06' E 010°14'0 0.0
2019-Nov-30 02:30N 59°06' E 010°14'0 0.0
2019-Nov-30 00:59N 59°06' E 010°14'0 0.0
2019-Nov-29 23:00N 59°06' E 010°14'0 0.0
2019-Nov-29 21:28N 59°06' E 010°14'0 0.0
2019-Nov-29 20:58N 59°06' E 010°14'0 0.8
2019-Nov-29 20:30N 59°07' E 010°14'3 3.0
2019-Nov-29 19:30N 59°04' E 010°15'2214.7
2019-Nov-29 18:01N 59°00' E 010°57'714.8
2019-Nov-29 17:30N 58°56' E 011°09'3 3.2
2019-Nov-29 16:31N 58°57' E 011°03'815.4
2019-Nov-29 16:01N 59°01' E 010°51'815.3
2019-Nov-29 15:30N 59°01' E 010°36'13 8.8
2019-Nov-29 14:00N 59°08' E 010°14'18 9.0
2019-Nov-29 12:00N 59°02' E 010°47'714.9
2019-Nov-29 11:30N 58°59' E 011°00'1 0.3
2019-Nov-29 09:30N 58°59' E 010°60'2512.5
2019-Nov-29 07:30N 59°07' E 010°14'0 0.5
2019-Nov-29 07:00N 59°08' E 010°14'1 1.3
2019-Nov-29 06:30N 59°07' E 010°14'1 0.5
2019-Nov-29 04:58N 59°06' E 010°14'0 0.0
2019-Nov-29 04:28N 59°06' E 010°14'0 0.0
2019-Nov-29 03:29N 59°06' E 010°14'0 0.0
2019-Nov-29 02:30N 59°06' E 010°14'0 0.0
2019-Nov-29 02:00N 59°06' E 010°14'0 0.0
2019-Nov-29 00:28N 59°06' E 010°14'0 0.0
2019-Nov-28 21:30N 59°06' E 010°14'1 1.0
2019-Nov-28 20:00N 59°08' E 010°14'4 7.8
2019-Nov-28 19:30N 59°04' E 010°15'713.4
2019-Nov-28 19:00N 59°01' E 010°27'1616.1
2019-Nov-28 18:00N 58°60' E 010°58'3 2.1
2019-Nov-28 16:30N 58°58' E 011°02'714.5
2019-Nov-28 16:00N 59°01' E 010°50'1912.7
2019-Nov-28 14:30N 59°06' E 010°14'2 3.4
2019-Nov-28 14:00N 59°08' E 010°14'0 0.3
2019-Nov-28 13:30N 59°07' E 010°14'  
Track history (hours):
 
Tides and Currents Weather Stations Pressure Air Temp Water Temp Dewpoint Dewpoint Depression Visibility Wind Speed Wind Dir Waves Ship Positions

DucheSS Of Scandinavia

Operator: DFDS A/S

Last reported at 2019-Dec-08 11:00 UTC. Time now 2019-Dec-08 11:19 UTC.
Position N 58°56' E 011°09'.

Length 134 m; draft 5.4 m.

Type: Passenger vessel. MMSI: 219002929.

Date/timePositionNaut miles runAvg speedWind from/ knotsBaromVisibWave heightAir tempDewpointWater temp
2019-Dec-08 11:00N 58°56' E 011°09'0 0.5
2019-Dec-08 10:00N 58°56' E 011°10'1514.8
2019-Dec-08 09:01N 59°02' E 010°43'16 2.9
2019-Dec-08 03:30N 59°06' E 010°14'0 0.0
2019-Dec-08 03:00N 59°06' E 010°14'0 0.0
2019-Dec-08 02:28N 59°06' E 010°14'0 0.0
2019-Dec-08 01:28N 59°06' E 010°14'0 0.0
2019-Dec-07 23:59N 59°06' E 010°14'0 0.0
2019-Dec-07 23:30N 59°06' E 010°14'0 0.0
2019-Dec-07 21:28N 59°06' E 010°14'1 1.3
2019-Dec-07 20:30N 59°07' E 010°14'13 2.5
2019-Dec-07 15:30N 59°01' E 010°34'1212.3
2019-Dec-07 14:30N 59°07' E 010°14'1 1.7
2019-Dec-07 14:00N 59°08' E 010°14'31 8.9
2019-Dec-07 10:30N 58°56' E 011°10'1110.9
2019-Dec-07 09:30N 59°01' E 010°52'1615.9
2019-Dec-07 08:30N 59°01' E 010°21'7 4.9
2019-Dec-07 07:00N 59°07' E 010°14'1 2.5
2019-Dec-07 06:30N 59°06' E 010°14'0 0.0
2019-Dec-07 04:30N 59°06' E 010°14'0 0.0
2019-Dec-07 02:58N 59°06' E 010°14'0 0.0
2019-Dec-07 00:59N 59°06' E 010°14'0 0.0
2019-Dec-07 00:00N 59°06' E 010°14'0 0.0
2019-Dec-06 23:30N 59°06' E 010°14'0 0.0
2019-Dec-06 21:28N 59°06' E 010°14'0 0.0
2019-Dec-06 21:00N 59°06' E 010°14'1 1.1
2019-Dec-06 20:01N 59°07' E 010°14'611.9
2019-Dec-06 19:30N 59°01' E 010°17'2214.9
2019-Dec-06 18:00N 58°59' E 010°60'6 6.3
2019-Dec-06 17:01N 58°56' E 011°10'1212.3
2019-Dec-06 16:00N 59°02' E 010°49'1912.3
2019-Dec-06 14:30N 59°06' E 010°14'1 2.7
2019-Dec-06 14:00N 59°08' E 010°14'7 7.2
2019-Dec-06 13:01N 59°01' E 010°18'714.5
2019-Dec-06 12:30N 58°60' E 010°32'713.1
2019-Dec-06 12:00N 59°01' E 010°44'1413.9
2019-Dec-06 11:00N 58°56' E 011°09'31 7.7
2019-Dec-06 07:00N 59°08' E 010°14'0 0.8
2019-Dec-06 06:30N 59°07' E 010°14'1 0.5
2019-Dec-06 04:29N 59°06' E 010°14'0 0.0
2019-Dec-06 02:00N 59°06' E 010°14'0 0.0
2019-Dec-06 01:28N 59°06' E 010°14'0 0.0
2019-Dec-05 22:30N 59°06' E 010°14'8 2.6
2019-Dec-05 19:30N 58°60' E 010°22'1110.9
2019-Dec-05 18:30N 59°01' E 010°43'1413.8
2019-Dec-05 17:30N 58°56' E 011°08'4 3.8
2019-Dec-05 16:31N 58°58' E 011°02'1414.0
2019-Dec-05 15:31N 58°60' E 010°36'12 6.2
2019-Dec-05 13:31N 59°06' E 010°14'713.9
2019-Dec-05 13:00N 59°00' E 010°22'12 3.1
2019-Dec-05 09:01N 59°02' E 010°46'17 5.6
2019-Dec-05 05:58N 59°06' E 010°14'0 0.0
2019-Dec-05 05:28N 59°06' E 010°14'0 0.0
2019-Dec-05 04:59N 59°06' E 010°14'0 0.0
2019-Dec-05 01:58N 59°06' E 010°14'0 0.0
2019-Dec-05 00:58N 59°06' E 010°14'12 2.0
2019-Dec-04 19:00N 59°01' E 010°34'18 8.8
2019-Dec-04 17:00N 58°56' E 011°07'13 2.6
2019-Dec-04 12:00N 59°02' E 010°44'8 3.3
2019-Dec-04 09:30N 58°59' E 010°60'1414.2
2019-Dec-04 08:31N 59°00' E 010°32'12 6.0
2019-Dec-04 06:30N 59°07' E 010°14'1 1.1
2019-Dec-04 05:29N 59°06' E 010°14'0 0.0
2019-Dec-04 05:00N 59°06' E 010°14'0 0.0
2019-Dec-04 04:00N 59°06' E 010°14'0 0.0
2019-Dec-04 03:28N 59°06' E 010°14'0 0.0
2019-Dec-04 02:28N 59°06' E 010°14'0 0.0
2019-Dec-04 01:56N 59°06' E 010°14'0 0.0
2019-Dec-04 00:30N 59°06' E 010°14'0 0.0
2019-Dec-03 23:30N 59°06' E 010°14'0 0.0
2019-Dec-03 21:29N 59°06' E 010°14'0 0.0
2019-Dec-03 20:59N 59°06' E 010°14'0 0.0
2019-Dec-03 20:29N 59°06' E 010°14'1 2.9
2019-Dec-03 20:00N 59°08' E 010°14'3110.5
2019-Dec-03 17:00N 58°56' E 011°10'2512.5
2019-Dec-03 15:00N 59°01' E 010°23'8 5.5
2019-Dec-03 13:30N 59°08' E 010°14'2311.5
2019-Dec-03 11:30N 59°00' E 010°56'3 1.3
2019-Dec-03 09:30N 58°59' E 011°00'815.3
2019-Dec-03 09:01N 59°02' E 010°47'815.5
2019-Dec-03 08:30N 59°01' E 010°32'1111.5
2019-Dec-03 07:31N 59°07' E 010°14'0 0.1
2019-Dec-03 06:31N 59°08' E 010°14'1 1.2
2019-Dec-03 05:28N 59°06' E 010°14'0 0.0
2019-Dec-03 04:29N 59°06' E 010°14'0 0.0
2019-Dec-03 03:59N 59°06' E 010°14'0 0.0
2019-Dec-03 03:29N 59°06' E 010°14'0 0.0
2019-Dec-03 00:28N 59°06' E 010°14'0 0.0
2019-Dec-02 22:59N 59°06' E 010°14'0 0.1
2019-Dec-02 22:30N 59°06' E 010°14'0 0.0
2019-Dec-02 21:30N 59°06' E 010°14'2 0.9
2019-Dec-02 19:31N 59°04' E 010°15'713.8
2019-Dec-02 19:00N 59°01' E 010°26'815.7
2019-Dec-02 18:30N 59°01' E 010°41'1514.7
2019-Dec-02 17:31N 58°56' E 011°08'1 2.3
2019-Dec-02 17:01N 58°56' E 011°10'1111.2
2019-Dec-02 16:01N 59°01' E 010°51'18 6.0
2019-Dec-02 13:00N 59°02' E 010°16'2214.6
2019-Dec-02 11:31N 58°60' E 010°58'14 4.7
2019-Dec-02 08:30N 59°00' E 010°31'1111.4
2019-Dec-02 07:30N 59°07' E 010°14'0 0.3
2019-Dec-02 07:00N 59°08' E 010°14'1 1.4
2019-Dec-02 06:01N 59°06' E 010°14'0 0.0
2019-Dec-02 04:30N 59°06' E 010°14'0 0.0
2019-Dec-02 04:00N 59°06' E 010°14'0 0.0
2019-Dec-02 03:28N 59°06' E 010°14'0 0.0
2019-Dec-02 01:29N 59°06' E 010°14'0 0.0
2019-Dec-01 23:30N 59°06' E 010°14'1 0.4
2019-Dec-01 19:59N 59°08' E 010°14'1610.7
2019-Dec-01 18:31N 59°01' E 010°42'12 5.9
2019-Dec-01 16:30N 58°57' E 011°03'714.3
2019-Dec-01 16:00N 59°01' E 010°51'2010.2
2019-Dec-01 14:00N 59°08' E 010°14'7 6.7
2019-Dec-01 13:01N 59°01' E 010°19'1615.7
2019-Dec-01 12:00N 59°01' E 010°49'714.9
2019-Dec-01 11:30N 58°58' E 011°02'17 5.7
2019-Dec-01 08:30N 59°00' E 010°30'10 3.3
2019-Dec-01 05:29N 59°06' E 010°14'0 0.0
2019-Dec-01 04:59N 59°06' E 010°14'0 0.0
2019-Dec-01 04:00N 59°06' E 010°14'0 0.0
2019-Dec-01 03:30N 59°06' E 010°14'0 0.0
2019-Dec-01 02:28N 59°06' E 010°14'0 0.0
2019-Nov-30 23:59N 59°06' E 010°14'0 0.0
2019-Nov-30 23:00N 59°06' E 010°14'0 0.0
2019-Nov-30 21:28N 59°06' E 010°14'1 1.2
2019-Nov-30 20:30N 59°07' E 010°14'11 7.2
2019-Nov-30 19:00N 59°01' E 010°30'817.0
2019-Nov-30 18:31N 59°02' E 010°46'16 3.2
2019-Nov-30 13:30N 59°04' E 010°15'1515.3
2019-Nov-30 12:31N 59°01' E 010°45'17 2.3
2019-Nov-30 05:29N 59°06' E 010°14'0 0.0
2019-Nov-30 04:59N 59°06' E 010°14'0 0.0
2019-Nov-30 03:30N 59°06' E 010°14'0 0.0
2019-Nov-30 02:30N 59°06' E 010°14'0 0.0
2019-Nov-30 00:59N 59°06' E 010°14'0 0.0
2019-Nov-29 23:00N 59°06' E 010°14'0 0.0
2019-Nov-29 21:28N 59°06' E 010°14'0 0.0
2019-Nov-29 20:58N 59°06' E 010°14'0 0.8
2019-Nov-29 20:30N 59°07' E 010°14'3 3.0
2019-Nov-29 19:30N 59°04' E 010°15'2214.7
2019-Nov-29 18:01N 59°00' E 010°57'714.8
2019-Nov-29 17:30N 58°56' E 011°09'3 3.2
2019-Nov-29 16:31N 58°57' E 011°03'815.4
2019-Nov-29 16:01N 59°01' E 010°51'815.3
2019-Nov-29 15:30N 59°01' E 010°36'13 8.8
2019-Nov-29 14:00N 59°08' E 010°14'18 9.0
2019-Nov-29 12:00N 59°02' E 010°47'714.9
2019-Nov-29 11:30N 58°59' E 011°00'1 0.3
2019-Nov-29 09:30N 58°59' E 010°60'2512.5
2019-Nov-29 07:30N 59°07' E 010°14'0 0.5
2019-Nov-29 07:00N 59°08' E 010°14'1 1.3
2019-Nov-29 06:30N 59°07' E 010°14'1 0.5
2019-Nov-29 04:58N 59°06' E 010°14'0 0.0
2019-Nov-29 04:28N 59°06' E 010°14'0 0.0
2019-Nov-29 03:29N 59°06' E 010°14'0 0.0
2019-Nov-29 02:30N 59°06' E 010°14'0 0.0
2019-Nov-29 02:00N 59°06' E 010°14'0 0.0
2019-Nov-29 00:28N 59°06' E 010°14'0 0.0
2019-Nov-28 21:30N 59°06' E 010°14'1 1.0
2019-Nov-28 20:00N 59°08' E 010°14'4 7.8
2019-Nov-28 19:30N 59°04' E 010°15'713.4
2019-Nov-28 19:00N 59°01' E 010°27'1616.1
2019-Nov-28 18:00N 58°60' E 010°58'3 2.1
2019-Nov-28 16:30N 58°58' E 011°02'714.5
2019-Nov-28 16:00N 59°01' E 010°50'1912.7
2019-Nov-28 14:30N 59°06' E 010°14'2 3.4
2019-Nov-28 14:00N 59°08' E 010°14'0 0.3
2019-Nov-28 13:30N 59°07' E 010°14'  

Dump ship's entire track history